createdAt,value
2017-11-23T00:00:39.626Z,97321
2017-11-23T00:03:07.804Z,97326
2017-11-23T00:05:35.993Z,97322
2017-11-23T00:08:04.187Z,97318
2017-11-23T00:10:33.199Z,97321
2017-11-23T00:13:01.385Z,97325
2017-11-23T00:15:29.602Z,97319
2017-11-23T00:17:57.784Z,97322
2017-11-23T00:20:25.976Z,97322
2017-11-23T00:22:54.149Z,97314
2017-11-23T00:25:22.340Z,97315
2017-11-23T00:27:51.282Z,97310
2017-11-23T00:30:19.452Z,97303
2017-11-23T00:32:47.633Z,97298
2017-11-23T00:35:15.803Z,97310
2017-11-23T00:37:43.974Z,97314
2017-11-23T00:40:12.158Z,97300
2017-11-23T00:42:40.331Z,97305
2017-11-23T00:45:08.547Z,97309
2017-11-23T00:47:37.505Z,97309
2017-11-23T00:50:05.771Z,97308
2017-11-23T00:52:33.949Z,97303
2017-11-23T00:55:02.116Z,97300
2017-11-23T00:57:30.299Z,97297
2017-11-23T00:59:58.496Z,97294
2017-11-23T01:02:26.677Z,97291
2017-11-23T01:04:54.876Z,97293
2017-11-23T01:07:23.829Z,97302
2017-11-23T01:09:52.017Z,97300
2017-11-23T01:12:20.275Z,97296
2017-11-23T01:14:48.461Z,97306
2017-11-23T01:17:16.634Z,97311
2017-11-23T01:19:44.821Z,97317
2017-11-23T01:22:18.529Z,97317
2017-11-23T01:24:46.750Z,97311
2017-11-23T01:27:14.919Z,97305
2017-11-23T01:29:43.112Z,97305
2017-11-23T01:32:11.298Z,97306
2017-11-23T01:34:39.469Z,97300
2017-11-23T01:37:07.666Z,97297
2017-11-23T01:39:35.880Z,97296
2017-11-23T01:42:04.063Z,97292
2017-11-23T01:44:32.268Z,97298
2017-11-23T01:47:00.439Z,97295
2017-11-23T01:49:28.632Z,97282
2017-11-23T01:51:56.823Z,97278
2017-11-23T01:54:25.002Z,97276
2017-11-23T01:56:53.176Z,97268
2017-11-23T01:59:21.481Z,97269
2017-11-23T02:01:49.680Z,97270
2017-11-23T02:04:17.965Z,97272
2017-11-23T02:06:46.920Z,97268
2017-11-23T02:09:15.118Z,97263
2017-11-23T02:11:43.364Z,97258
2017-11-23T02:14:11.601Z,97258
2017-11-23T02:16:39.800Z,97258
2017-11-23T02:19:08.060Z,97256
2017-11-23T02:21:36.291Z,97257
2017-11-23T02:24:04.495Z,97253
2017-11-23T02:26:33.472Z,97245
2017-11-23T02:29:01.668Z,97243
2017-11-23T02:31:30.646Z,97253
2017-11-23T02:33:59.636Z,97256
2017-11-23T02:36:28.636Z,97254
2017-11-23T02:38:57.587Z,97252
2017-11-23T02:41:26.608Z,97251
2017-11-23T02:43:54.833Z,97252
2017-11-23T02:46:23.016Z,97260
2017-11-23T02:48:51.205Z,97252
2017-11-23T02:51:19.371Z,97246
2017-11-23T02:53:47.587Z,97253
2017-11-23T02:56:16.554Z,97251
2017-11-23T02:58:44.756Z,97253
2017-11-23T03:01:13.051Z,97252
2017-11-23T03:03:42.069Z,97250
2017-11-23T03:06:10.252Z,97247
2017-11-23T03:08:38.452Z,97248
2017-11-23T03:11:07.412Z,97242
2017-11-23T03:13:35.634Z,97244
2017-11-23T03:16:03.807Z,97252
2017-11-23T03:18:31.975Z,97243
2017-11-23T03:21:00.141Z,97236
2017-11-23T03:23:28.320Z,97243
2017-11-23T03:25:56.508Z,97245
2017-11-23T03:28:24.683Z,97243
2017-11-23T03:30:52.857Z,97238
2017-11-23T03:33:21.101Z,97237
2017-11-23T03:35:49.269Z,97234
2017-11-23T03:38:17.451Z,97225
2017-11-23T03:40:45.709Z,97233
2017-11-23T03:43:13.907Z,97240
2017-11-23T03:45:42.109Z,97237
2017-11-23T03:48:10.283Z,97234
2017-11-23T03:50:38.549Z,97234
2017-11-23T03:53:06.741Z,97223
2017-11-23T03:55:34.931Z,97218
2017-11-23T03:58:03.906Z,97218
2017-11-23T04:00:32.090Z,97215
2017-11-23T04:03:00.276Z,97213
2017-11-23T04:05:29.222Z,97211
2017-11-23T04:07:57.398Z,97210
2017-11-23T04:10:25.581Z,97216
2017-11-23T04:12:53.779Z,97221
2017-11-23T04:15:21.963Z,97217
2017-11-23T04:17:50.924Z,97215
2017-11-23T04:20:19.179Z,97223
2017-11-23T04:22:47.389Z,97227
2017-11-23T04:25:15.609Z,97232
2017-11-23T04:27:43.795Z,97232
2017-11-23T04:30:11.996Z,97229
2017-11-23T04:32:40.172Z,97229
2017-11-23T04:35:09.176Z,97224
2017-11-23T04:37:37.370Z,97222
2017-11-23T04:40:05.556Z,97230
2017-11-23T04:42:34.545Z,97227
2017-11-23T04:45:03.524Z,97234
2017-11-23T04:47:31.727Z,97230
2017-11-23T04:49:59.933Z,97236
2017-11-23T04:52:28.146Z,97239
2017-11-23T04:54:56.321Z,97236
2017-11-23T04:57:24.498Z,97238
2017-11-23T04:59:52.691Z,97239
2017-11-23T05:02:21.636Z,97232
2017-11-23T05:04:49.805Z,97241
2017-11-23T05:07:17.998Z,97242
2017-11-23T05:09:46.229Z,97241
2017-11-23T05:12:14.415Z,97245
2017-11-23T05:14:42.572Z,97240
2017-11-23T05:17:10.753Z,97242
2017-11-23T05:19:38.937Z,97242
2017-11-23T05:22:07.112Z,97239
2017-11-23T05:24:35.271Z,97241
2017-11-23T05:27:03.477Z,97242
2017-11-23T05:29:31.648Z,97243
2017-11-23T05:31:59.856Z,97241
2017-11-23T05:34:28.040Z,97243
2017-11-23T05:36:56.214Z,97244
2017-11-23T05:39:24.395Z,97248
2017-11-23T05:41:52.577Z,97245
2017-11-23T05:44:21.520Z,97233
2017-11-23T05:46:49.723Z,97240
2017-11-23T05:49:17.916Z,97239
2017-11-23T05:51:46.873Z,97243
2017-11-23T05:54:15.041Z,97241
2017-11-23T05:56:43.251Z,97245
2017-11-23T05:59:11.417Z,97241
2017-11-23T06:01:39.597Z,97247
2017-11-23T06:04:07.788Z,97251
2017-11-23T06:06:36.733Z,97245
2017-11-23T06:09:04.963Z,97254
2017-11-23T06:11:33.904Z,97254
2017-11-23T06:14:02.067Z,97253
2017-11-23T06:16:30.252Z,97252
2017-11-23T06:18:58.417Z,97247
2017-11-23T06:21:26.584Z,97242
2017-11-23T06:23:54.749Z,97239
2017-11-23T06:26:22.908Z,97233
2017-11-23T06:28:51.845Z,97248
2017-11-23T06:31:20.070Z,97244
2017-11-23T06:33:49.007Z,97249
2017-11-23T06:36:17.235Z,97253
2017-11-23T06:38:46.170Z,97245
2017-11-23T06:41:14.341Z,97248
2017-11-23T06:43:42.548Z,97247
2017-11-23T06:46:10.720Z,97251
2017-11-23T06:48:38.889Z,97251
2017-11-23T06:51:07.081Z,97247
2017-11-23T06:53:35.253Z,97247
2017-11-23T06:56:03.429Z,97244
2017-11-23T06:58:31.612Z,97246
2017-11-23T07:01:00.566Z,97250
2017-11-23T07:03:28.823Z,97248
2017-11-23T07:05:57.064Z,97247
2017-11-23T07:08:26.002Z,97245
2017-11-23T07:10:54.194Z,97237
2017-11-23T07:13:22.387Z,97241
2017-11-23T07:15:50.589Z,97242
2017-11-23T07:18:19.547Z,97242
2017-11-23T07:20:47.732Z,97236
2017-11-23T07:23:15.911Z,97240
2017-11-23T07:25:44.281Z,97236
2017-11-23T07:28:18.072Z,97239
2017-11-23T07:30:46.257Z,97241
2017-11-23T07:33:14.449Z,97236
2017-11-23T07:35:43.408Z,97235
2017-11-23T07:38:11.596Z,97238
2017-11-23T07:40:39.769Z,97240
2017-11-23T07:43:07.964Z,97240
2017-11-23T07:45:36.211Z,97234
2017-11-23T07:48:04.475Z,97226
2017-11-23T07:50:32.707Z,97236
2017-11-23T07:53:01.676Z,97236
2017-11-23T07:55:29.874Z,97239
2017-11-23T07:57:59.071Z,97241
2017-11-23T08:00:28.023Z,97236
2017-11-23T08:02:56.188Z,97241
2017-11-23T08:05:24.363Z,97246
2017-11-23T08:07:52.545Z,97250
2017-11-23T08:10:20.711Z,97236
2017-11-23T08:12:48.887Z,97238
2017-11-23T08:15:17.060Z,97251
2017-11-23T08:17:45.256Z,97242
2017-11-23T08:20:13.449Z,97235
2017-11-23T08:22:42.390Z,97234
2017-11-23T08:25:10.571Z,97232
2017-11-23T08:27:38.728Z,97226
2017-11-23T08:30:06.920Z,97224
2017-11-23T08:32:35.091Z,97232
2017-11-23T08:35:03.250Z,97229
2017-11-23T08:37:31.444Z,97233
2017-11-23T08:39:59.608Z,97228
2017-11-23T08:42:27.791Z,97225
2017-11-23T08:44:55.965Z,97231
2017-11-23T08:47:24.116Z,97228
2017-11-23T08:49:52.302Z,97227
2017-11-23T08:52:20.520Z,97237
2017-11-23T08:54:54.092Z,97224
2017-11-23T08:57:22.275Z,97231
2017-11-23T08:59:50.436Z,97224
2017-11-23T09:02:18.590Z,97221
2017-11-23T09:04:46.768Z,97214
2017-11-23T09:07:14.943Z,97221
2017-11-23T09:09:43.107Z,97223
2017-11-23T09:12:15.821Z,97222
2017-11-23T09:14:43.979Z,97220
2017-11-23T09:17:12.147Z,97224
2017-11-23T09:19:40.319Z,97226
2017-11-23T09:22:08.535Z,97231
2017-11-23T09:24:36.700Z,97229
2017-11-23T09:27:35.595Z,97234
2017-11-23T09:30:03.798Z,97235
2017-11-23T09:32:32.736Z,97230
2017-11-23T09:35:00.935Z,97234
2017-11-23T09:37:29.207Z,97223
2017-11-23T09:39:57.406Z,97226
2017-11-23T09:42:25.591Z,97216
2017-11-23T09:44:53.752Z,97216
2017-11-23T09:47:22.686Z,97224
2017-11-23T09:49:51.644Z,97227
2017-11-23T09:52:19.923Z,97214
2017-11-23T09:54:48.153Z,97209
2017-11-23T09:57:16.373Z,97205
2017-11-23T09:59:44.555Z,97212
2017-11-23T10:02:12.742Z,97213
2017-11-23T10:04:40.915Z,97212
2017-11-23T10:07:09.925Z,97201
2017-11-23T10:09:38.882Z,97204
2017-11-23T10:12:07.058Z,97207
2017-11-23T10:14:40.819Z,97204
2017-11-23T10:17:09.004Z,97201
2017-11-23T10:19:37.202Z,97198
2017-11-23T10:22:05.386Z,97198
2017-11-23T10:24:33.805Z,97197
2017-11-23T10:27:02.752Z,97190
2017-11-23T10:29:30.943Z,97188
2017-11-23T10:31:59.879Z,97184
2017-11-23T10:34:28.073Z,97188
2017-11-23T10:36:56.295Z,97186
2017-11-23T10:39:24.477Z,97188
2017-11-23T10:41:53.433Z,97182
2017-11-23T10:44:21.613Z,97188
2017-11-23T10:46:49.789Z,97186
2017-11-23T10:49:18.762Z,97185
2017-11-23T10:51:46.937Z,97181
2017-11-23T10:54:15.131Z,97191
2017-11-23T10:56:43.299Z,97185
2017-11-23T10:59:11.481Z,97186
2017-11-23T11:01:39.679Z,97187
2017-11-23T11:04:07.912Z,97186
2017-11-23T11:06:36.199Z,97187
2017-11-23T11:09:04.427Z,97180
2017-11-23T11:11:33.380Z,97179
2017-11-23T11:14:01.597Z,97190
2017-11-23T11:16:30.579Z,97184
2017-11-23T11:18:59.520Z,97179
2017-11-23T11:21:27.698Z,97183
2017-11-23T11:23:55.881Z,97188
2017-11-23T11:26:24.051Z,97189
2017-11-23T11:28:52.224Z,97189
2017-11-23T11:31:20.405Z,97189
2017-11-23T11:33:48.582Z,97189
2017-11-23T11:36:16.773Z,97190
2017-11-23T11:38:44.960Z,97190
2017-11-23T11:41:13.140Z,97195
2017-11-23T11:43:42.153Z,97190
2017-11-23T11:46:10.365Z,97183
2017-11-23T11:48:38.551Z,97191
2017-11-23T11:51:06.732Z,97183
2017-11-23T11:53:34.908Z,97185
2017-11-23T11:56:03.105Z,97186
2017-11-23T11:58:32.150Z,97180
2017-11-23T12:01:00.323Z,97178
2017-11-23T12:03:28.502Z,97179
2017-11-23T12:05:56.685Z,97170
2017-11-23T12:08:24.847Z,97172
2017-11-23T12:10:53.025Z,97173
2017-11-23T12:13:21.247Z,97171
2017-11-23T12:16:07.432Z,97176
2017-11-23T12:18:47.350Z,97174
2017-11-23T12:24:30.154Z,97165
2017-11-23T12:26:59.118Z,97164
2017-11-23T12:29:45.199Z,97160
2017-11-23T12:32:13.473Z,97169
2017-11-23T12:34:41.669Z,97165
2017-11-23T12:37:09.844Z,97167
2017-11-23T12:39:38.017Z,97164
2017-11-23T12:42:06.208Z,97154
2017-11-23T12:44:35.144Z,97160
2017-11-23T12:47:03.318Z,97160
2017-11-23T12:49:31.496Z,97159
2017-11-23T12:51:59.668Z,97159
2017-11-23T12:54:27.840Z,97159
2017-11-23T12:56:56.024Z,97163
2017-11-23T12:59:24.233Z,97164
2017-11-23T13:01:53.190Z,97164
2017-11-23T13:04:21.362Z,97162
2017-11-23T13:06:49.544Z,97167
2017-11-23T13:09:17.716Z,97169
2017-11-23T13:11:45.901Z,97173
2017-11-23T13:14:14.106Z,97166
2017-11-23T13:16:43.043Z,97171
2017-11-23T13:19:11.229Z,97168
2017-11-23T13:21:39.426Z,97171
2017-11-23T13:24:07.616Z,97171
2017-11-23T13:26:35.793Z,97170
2017-11-23T13:29:03.980Z,97173
2017-11-23T13:31:32.960Z,97174
2017-11-23T13:34:01.903Z,97180
2017-11-23T13:36:30.092Z,97180
2017-11-23T13:38:58.288Z,97178
2017-11-23T13:41:26.458Z,97179
2017-11-23T13:43:54.633Z,97181
2017-11-23T13:46:22.843Z,97184
2017-11-23T13:48:51.786Z,97188
2017-11-23T13:51:19.961Z,97189
2017-11-23T13:53:48.145Z,97187
2017-11-23T13:56:16.328Z,97188
2017-11-23T13:58:44.501Z,97188
2017-11-23T14:01:12.679Z,97197
2017-11-23T14:03:40.847Z,97207
2017-11-23T14:06:09.022Z,97204
2017-11-23T14:08:37.211Z,97213
2017-11-23T14:11:06.168Z,97214
2017-11-23T14:13:34.352Z,97221
2017-11-23T14:16:02.530Z,97216
2017-11-23T14:18:30.708Z,97220
2017-11-23T14:20:58.918Z,97223
2017-11-23T14:23:27.867Z,97231
2017-11-23T14:25:56.039Z,97231
2017-11-23T14:28:24.210Z,97234
2017-11-23T14:30:52.397Z,97239
2017-11-23T14:33:20.592Z,97242
2017-11-23T14:35:48.761Z,97243
2017-11-23T14:38:16.936Z,97251
2017-11-23T14:40:45.138Z,97254
2017-11-23T14:43:14.123Z,97262
2017-11-23T14:45:43.075Z,97265
2017-11-23T14:48:11.256Z,97261
2017-11-23T14:50:39.424Z,97272
2017-11-23T14:53:07.616Z,97265
2017-11-23T14:55:35.804Z,97268
2017-11-23T14:58:03.979Z,97263
2017-11-23T15:00:32.162Z,97265
2017-11-23T15:03:01.103Z,97274
2017-11-23T15:05:29.280Z,97277
2017-11-23T15:07:57.463Z,97278
2017-11-23T15:10:25.641Z,97282
2017-11-23T15:12:53.824Z,97291
2017-11-23T15:15:21.999Z,97292
2017-11-23T15:17:50.170Z,97291
2017-11-23T15:20:18.345Z,97294
2017-11-23T15:22:46.535Z,97294
2017-11-23T15:25:14.719Z,97299
2017-11-23T15:27:42.905Z,97306
2017-11-23T15:30:11.859Z,97312
2017-11-23T15:32:40.039Z,97314
2017-11-23T15:35:08.983Z,97316
2017-11-23T15:37:37.172Z,97325
2017-11-23T15:40:05.352Z,97325
2017-11-23T15:42:33.531Z,97325
2017-11-23T15:45:01.807Z,97327
2017-11-23T15:47:29.983Z,97334
2017-11-23T15:49:58.159Z,97335
2017-11-23T15:52:26.331Z,97341
2017-11-23T15:54:54.507Z,97337
2017-11-23T15:57:22.700Z,97341
2017-11-23T15:59:50.873Z,97351
2017-11-23T16:02:19.046Z,97351
2017-11-23T16:04:47.234Z,97362
2017-11-23T16:07:15.415Z,97363
2017-11-23T16:09:43.622Z,97363
2017-11-23T16:12:12.573Z,97366
2017-11-23T16:14:40.743Z,97371
2017-11-23T16:17:08.945Z,97375
2017-11-23T16:19:37.131Z,97383
2017-11-23T16:22:06.105Z,97381
2017-11-23T16:24:34.286Z,97384
2017-11-23T16:27:02.461Z,97386
2017-11-23T16:29:30.663Z,97393
2017-11-23T16:31:58.864Z,97401
2017-11-23T16:34:27.051Z,97409
2017-11-23T16:37:05.154Z,97416
2017-11-23T16:39:33.383Z,97420
2017-11-23T16:45:21.635Z,97424
2017-11-23T16:51:08.455Z,97430
2017-11-23T16:56:40.937Z,97424
2017-11-23T17:02:37.523Z,97432
2017-11-23T17:05:11.401Z,97437
2017-11-23T17:07:44.970Z,97432
2017-11-23T17:10:18.728Z,97430
2017-11-23T17:16:06.265Z,97441
2017-11-23T17:18:34.459Z,97446
2017-11-23T17:21:02.652Z,97447
2017-11-23T17:23:31.636Z,97448
2017-11-23T17:26:00.584Z,97455
2017-11-23T17:28:28.760Z,97455
2017-11-23T17:30:56.923Z,97456
2017-11-23T17:33:25.100Z,97461
2017-11-23T17:35:53.265Z,97464
2017-11-23T17:38:21.528Z,97465
2017-11-23T17:40:49.765Z,97467
2017-11-23T17:43:17.965Z,97473
2017-11-23T17:45:46.930Z,97448
2017-11-23T17:48:15.112Z,97480
2017-11-23T17:50:43.349Z,97485
2017-11-23T17:53:11.527Z,97487
2017-11-23T17:55:39.700Z,97493
2017-11-23T17:58:07.869Z,97487
2017-11-23T18:00:36.038Z,97499
2017-11-23T18:03:04.204Z,97498
2017-11-23T18:05:32.400Z,97499
2017-11-23T18:08:00.606Z,97498
2017-11-23T18:10:28.771Z,97498
2017-11-23T18:12:56.949Z,97499
2017-11-23T18:15:25.137Z,97505
2017-11-23T18:17:53.308Z,97511
2017-11-23T18:20:21.493Z,97505
2017-11-23T18:22:50.456Z,97513
2017-11-23T18:25:18.642Z,97500
2017-11-23T18:27:46.827Z,97506
2017-11-23T18:30:15.003Z,97503
2017-11-23T18:32:43.186Z,97512
2017-11-23T18:35:12.139Z,97506
2017-11-23T18:37:40.324Z,97514
2017-11-23T18:40:08.556Z,97509
2017-11-23T18:42:36.777Z,97512
2017-11-23T18:45:04.970Z,97513
2017-11-23T18:47:33.152Z,97514
2017-11-23T18:50:02.097Z,97510
2017-11-23T18:52:30.279Z,97520
2017-11-23T18:54:58.454Z,97522
2017-11-23T18:57:27.403Z,97521
2017-11-23T18:59:56.354Z,97518
2017-11-23T19:02:24.587Z,97523
2017-11-23T19:04:52.772Z,97527
2017-11-23T19:07:20.939Z,97532
2017-11-23T19:09:49.155Z,97530
2017-11-23T19:12:17.335Z,97532
2017-11-23T19:14:45.525Z,97533
2017-11-23T19:17:13.807Z,97541
2017-11-23T19:19:42.005Z,97543
2017-11-23T19:22:10.175Z,97547
2017-11-23T19:24:38.373Z,97545
2017-11-23T19:27:07.303Z,97546
2017-11-23T19:29:35.480Z,97547
2017-11-23T19:32:03.652Z,97547
2017-11-23T19:34:31.818Z,97547
2017-11-23T19:37:09.072Z,97549
2017-11-23T19:39:37.267Z,97554
2017-11-23T19:42:06.223Z,97563
2017-11-23T19:44:34.412Z,97565
2017-11-23T19:47:02.615Z,97560
2017-11-23T19:49:31.577Z,97561
2017-11-23T19:51:59.772Z,97565
2017-11-23T19:54:28.750Z,97569
2017-11-23T19:56:56.932Z,97574
2017-11-23T19:59:25.128Z,97578
2017-11-23T20:01:54.068Z,97578
2017-11-23T20:04:22.244Z,97581
2017-11-23T20:06:50.428Z,97581
2017-11-23T20:09:18.632Z,97577
2017-11-23T20:11:47.591Z,97582
2017-11-23T20:14:15.808Z,97580
2017-11-23T20:16:44.759Z,97579
2017-11-23T20:19:12.941Z,97579
2017-11-23T20:21:41.190Z,97577
2017-11-23T20:24:09.409Z,97581
2017-11-23T20:26:37.653Z,97582
2017-11-23T20:29:05.844Z,97585
2017-11-23T20:31:34.034Z,97585
2017-11-23T20:34:02.222Z,97588
2017-11-23T20:36:31.172Z,97588
2017-11-23T20:38:59.388Z,97593
2017-11-23T20:41:28.357Z,97589
2017-11-23T20:43:56.542Z,97586
2017-11-23T20:46:24.724Z,97592
2017-11-23T20:48:53.680Z,97587
2017-11-23T20:51:21.920Z,97587
2017-11-23T20:53:50.123Z,97589
2017-11-23T20:56:18.316Z,97587
2017-11-23T20:58:47.282Z,97589
2017-11-23T21:01:15.468Z,97590
2017-11-23T21:03:43.656Z,97588
2017-11-23T21:06:11.864Z,97588
2017-11-23T21:08:40.824Z,97589
2017-11-23T21:11:09.235Z,97594
2017-11-23T21:13:38.228Z,97596
2017-11-23T21:16:07.247Z,97589
2017-11-23T21:18:35.437Z,97597
2017-11-23T21:21:03.609Z,97594
2017-11-23T21:23:31.797Z,97592
2017-11-23T21:26:00.084Z,97589
2017-11-23T21:28:28.254Z,97588
2017-11-23T21:30:56.462Z,97594
2017-11-23T21:33:24.698Z,97588
2017-11-23T21:35:52.879Z,97587
2017-11-23T21:38:21.065Z,97588
2017-11-23T21:40:49.239Z,97588
2017-11-23T21:43:17.423Z,97581
2017-11-23T21:45:45.624Z,97589
2017-11-23T21:48:14.576Z,97595
2017-11-23T21:50:42.763Z,97591
2017-11-23T21:53:10.940Z,97589
2017-11-23T21:55:39.115Z,97593
2017-11-23T21:58:07.298Z,97597
2017-11-23T22:00:35.560Z,97598
2017-11-23T22:03:03.732Z,97595
2017-11-23T22:05:32.013Z,97597
2017-11-23T22:08:00.187Z,97601
2017-11-23T22:10:28.412Z,97599
2017-11-23T22:12:56.639Z,97608
2017-11-23T22:15:24.823Z,97610
2017-11-23T22:17:53.009Z,97611
2017-11-23T22:20:21.217Z,97614
2017-11-23T22:22:49.399Z,97614
2017-11-23T22:25:17.597Z,97615
2017-11-23T22:27:45.786Z,97614
2017-11-23T22:30:13.966Z,97621
2017-11-23T22:32:42.132Z,97625
2017-11-23T22:35:11.076Z,97623
2017-11-23T22:37:39.387Z,97630
2017-11-23T22:40:07.588Z,97635
2017-11-23T22:42:35.790Z,97629
2017-11-23T22:45:04.838Z,97626
2017-11-23T22:47:33.112Z,97620
2017-11-23T22:50:01.283Z,97629
2017-11-23T22:52:29.448Z,97623
2017-11-23T22:54:57.614Z,97620
2017-11-23T22:57:25.808Z,97614
2017-11-23T22:59:53.967Z,97619
2017-11-23T23:02:22.131Z,97617
2017-11-23T23:04:50.346Z,97619
2017-11-23T23:07:18.609Z,97617
2017-11-23T23:09:46.782Z,97613
2017-11-23T23:12:14.945Z,97618
2017-11-23T23:14:43.170Z,97617
2017-11-23T23:17:11.362Z,97614
2017-11-23T23:19:40.313Z,97616
2017-11-23T23:22:08.491Z,97619
2017-11-23T23:24:36.680Z,97613
2017-11-23T23:27:04.851Z,97610
2017-11-23T23:29:33.023Z,97617
2017-11-23T23:32:01.192Z,97612
2017-11-23T23:34:29.379Z,97621
2017-11-23T23:36:57.551Z,97626
2017-11-23T23:39:25.711Z,97618
2017-11-23T23:41:54.659Z,97617
2017-11-23T23:44:22.827Z,97620
2017-11-23T23:46:51.770Z,97617
2017-11-23T23:49:19.930Z,97620
2017-11-23T23:51:48.124Z,97617
2017-11-23T23:54:16.339Z,97621
2017-11-23T23:56:45.267Z,97628
2017-11-23T23:59:13.433Z,97632
